sensor_id;sensor_type;location;lat;lon;timestamp;pressure;altitude;pressure_sealevel;temperature;humidity
65157;BME280;52745;49.794;18.258;2023-02-12T00:00:06;-16038.03;;;3.77;98.57
65157;BME280;52745;49.794;18.258;2023-02-12T00:03:01;-16040.50;;;3.86;98.01
65157;BME280;52745;49.794;18.258;2023-02-12T00:05:28;-16040.34;;;3.85;98.03
65157;BME280;52745;49.794;18.258;2023-02-12T00:07:55;-16041.19;;;3.88;97.91
65157;BME280;52745;49.794;18.258;2023-02-12T00:10:22;-16040.34;;;3.85;98.25
65157;BME280;52745;49.794;18.258;2023-02-12T00:12:49;-16041.03;;;3.88;98.44
65157;BME280;52745;49.794;18.258;2023-02-12T00:15:16;-16041.19;;;3.88;98.48
65157;BME280;52745;49.794;18.258;2023-02-12T00:17:43;-16041.72;;;3.90;98.19
65157;BME280;52745;49.794;18.258;2023-02-12T00:20:10;-16041.19;;;3.88;98.48
65157;BME280;52745;49.794;18.258;2023-02-12T00:22:36;-16037.88;;;3.76;98.80
65157;BME280;52745;49.794;18.258;2023-02-12T00:25:04;-16041.03;;;3.88;99.30
65157;BME280;52745;49.794;18.258;2023-02-12T00:27:34;-16041.19;;;3.88;99.09
65157;BME280;52745;49.794;18.258;2023-02-12T00:30:01;-16039.94;;;3.84;99.55
65157;BME280;52745;49.794;18.258;2023-02-12T00:32:28;-16038.84;;;3.80;100.00
65157;BME280;52745;49.794;18.258;2023-02-12T00:34:55;-16034.75;;;3.64;100.00
65157;BME280;52745;49.794;18.258;2023-02-12T00:37:21;-16036.13;;;3.69;100.00
65157;BME280;52745;49.794;18.258;2023-02-12T00:39:48;-16033.09;;;3.58;100.00
65157;BME280;52745;49.794;18.258;2023-02-12T00:42:15;-16029.81;;;3.46;100.00
65157;BME280;52745;49.794;18.258;2023-02-12T00:44:42;-16029.28;;;3.44;100.00
65157;BME280;52745;49.794;18.258;2023-02-12T00:47:08;-16027.50;;;3.37;100.00
65157;BME280;52745;49.794;18.258;2023-02-12T00:49:35;-16028.59;;;3.41;100.00
65157;BME280;52745;49.794;18.258;2023-02-12T00:52:03;-16029.28;;;3.44;100.00
65157;BME280;52745;49.794;18.258;2023-02-12T00:54:30;-16028.59;;;3.41;100.00
65157;BME280;52745;49.794;18.258;2023-02-12T00:56:57;-16027.09;;;3.36;100.00
65157;BME280;52745;49.794;18.258;2023-02-12T00:59:29;-16029.97;;;3.46;100.00
65157;BME280;52745;49.794;18.258;2023-02-12T01:01:56;-16030.50;;;3.48;100.00
65157;BME280;52745;49.794;18.258;2023-02-12T01:04:24;-16029.69;;;3.45;100.00
65157;BME280;52745;49.794;18.258;2023-02-12T01:06:50;-16030.63;;;3.49;100.00
65157;BME280;52745;49.794;18.258;2023-02-12T01:09:18;-16031.31;;;3.51;100.00
65157;BME280;52745;49.794;18.258;2023-02-12T01:11:47;-16031.88;;;3.53;100.00
65157;BME280;52745;49.794;18.258;2023-02-12T01:14:13;-16030.91;;;3.50;100.00
65157;BME280;52745;49.794;18.258;2023-02-12T01:16:40;-16032.69;;;3.57;100.00
65157;BME280;52745;49.794;18.258;2023-02-12T01:19:10;-16031.88;;;3.53;100.00
65157;BME280;52745;49.794;18.258;2023-02-12T01:21:37;-16032.69;;;3.57;100.00
65157;BME280;52745;49.794;18.258;2023-02-12T01:24:04;-16031.31;;;3.51;100.00
65157;BME280;52745;49.794;18.258;2023-02-12T01:26:31;-16032.16;;;3.55;100.00
65157;BME280;52745;49.794;18.258;2023-02-12T01:29:04;-16031.06;;;3.50;100.00
65157;BME280;52745;49.794;18.258;2023-02-12T01:31:35;-16029.53;;;3.45;100.00
65157;BME280;52745;49.794;18.258;2023-02-12T01:34:05;-16028.44;;;3.41;100.00
65157;BME280;52745;49.794;18.258;2023-02-12T01:36:33;-16025.84;;;3.31;100.00
65157;BME280;52745;49.794;18.258;2023-02-12T01:39:02;-16026.41;;;3.33;100.00
65157;BME280;52745;49.794;18.258;2023-02-12T01:41:31;-16028.03;;;3.39;100.00
65157;BME280;52745;49.794;18.258;2023-02-12T01:44:23;-16027.75;;;3.38;100.00
65157;BME280;52745;49.794;18.258;2023-02-12T01:46:56;-16032.00;;;3.54;100.00
65157;BME280;52745;49.794;18.258;2023-02-12T01:49:29;-16033.50;;;3.60;100.00
65157;BME280;52745;49.794;18.258;2023-02-12T01:52:05;-16033.25;;;3.59;100.00
65157;BME280;52745;49.794;18.258;2023-02-12T01:54:34;-16034.34;;;3.63;100.00
65157;BME280;52745;49.794;18.258;2023-02-12T01:57:04;-16036.25;;;3.70;100.00
65157;BME280;52745;49.794;18.258;2023-02-12T01:59:33;-16037.63;;;3.75;100.00
65157;BME280;52745;49.794;18.258;2023-02-12T02:02:02;-16037.34;;;3.74;100.00
65157;BME280;52745;49.794;18.258;2023-02-12T02:04:35;-16037.06;;;3.73;100.00
65157;BME280;52745;49.794;18.258;2023-02-12T02:07:05;-16035.56;;;3.67;100.00
65157;BME280;52745;49.794;18.258;2023-02-12T02:09:33;-16036.53;;;3.71;100.00
65157;BME280;52745;49.794;18.258;2023-02-12T02:12:01;-16035.84;;;3.68;100.00
65157;BME280;52745;49.794;18.258;2023-02-12T02:14:48;-16035.72;;;3.68;100.00
65157;BME280;52745;49.794;18.258;2023-02-12T02:22:51;-16035.44;;;3.67;100.00
65157;BME280;52745;49.794;18.258;2023-02-12T02:31:19;-16035.16;;;3.66;100.00
65157;BME280;52745;49.794;18.258;2023-02-12T02:39:18;-16038.44;;;3.78;100.00
65157;BME280;52745;49.794;18.258;2023-02-12T02:41:59;-16037.34;;;3.74;100.00
65157;BME280;52745;49.794;18.258;2023-02-12T02:44:34;-16037.47;;;3.75;100.00
65157;BME280;52745;49.794;18.258;2023-02-12T02:47:03;-16037.34;;;3.74;100.00
65157;BME280;52745;49.794;18.258;2023-02-12T02:49:44;-16037.34;;;3.74;100.00
65157;BME280;52745;49.794;18.258;2023-02-12T02:52:21;-16038.72;;;3.79;100.00
65157;BME280;52745;49.794;18.258;2023-02-12T02:54:53;-16041.03;;;3.88;100.00
65157;BME280;52745;49.794;18.258;2023-02-12T02:57:27;-16042.28;;;3.92;100.00
65157;BME280;52745;49.794;18.258;2023-02-12T03:00:00;-16042.41;;;3.93;100.00
65157;BME280;52745;49.794;18.258;2023-02-12T03:02:37;-16043.78;;;3.98;100.00
65157;BME280;52745;49.794;18.258;2023-02-12T03:05:15;-16042.69;;;3.94;100.00
65157;BME280;52745;49.794;18.258;2023-02-12T03:07:48;-16043.63;;;3.98;100.00
65157;BME280;52745;49.794;18.258;2023-02-12T03:12:53;-16044.72;;;4.02;100.00
65157;BME280;52745;49.794;18.258;2023-02-12T03:15:43;-16044.88;;;4.02;100.00
65157;BME280;52745;49.794;18.258;2023-02-12T03:18:17;-16045.56;;;4.05;100.00
65157;BME280;52745;49.794;18.258;2023-02-12T03:20:49;-16043.50;;;3.97;100.00
65157;BME280;52745;49.794;18.258;2023-02-12T03:23:24;-16044.72;;;4.02;100.00
65157;BME280;52745;49.794;18.258;2023-02-12T03:25:54;-16042.81;;;3.94;100.00
65157;BME280;52745;49.794;18.258;2023-02-12T03:28:30;-16042.00;;;3.91;100.00
65157;BME280;52745;49.794;18.258;2023-02-12T03:31:09;-16042.28;;;3.92;100.00
65157;BME280;52745;49.794;18.258;2023-02-12T03:33:55;-16042.28;;;3.92;100.00
65157;BME280;52745;49.794;18.258;2023-02-12T03:39:28;-16043.63;;;3.98;100.00
65157;BME280;52745;49.794;18.258;2023-02-12T03:47:16;-16043.63;;;3.98;100.00
65157;BME280;52745;49.794;18.258;2023-02-12T03:50:26;-16044.31;;;4.00;100.00
65157;BME280;52745;49.794;18.258;2023-02-12T03:52:45;-16044.19;;;4.00;100.00
65157;BME280;52745;49.794;18.258;2023-02-12T03:55:13;-16043.91;;;3.99;100.00
65157;BME280;52745;49.794;18.258;2023-02-12T03:57:53;-16043.91;;;3.99;100.00
65157;BME280;52745;49.794;18.258;2023-02-12T04:00:23;-16044.88;;;4.02;100.00
65157;BME280;52745;49.794;18.258;2023-02-12T04:02:51;-16045.56;;;4.05;100.00
65157;BME280;52745;49.794;18.258;2023-02-12T04:05:24;-16044.59;;;4.01;100.00
65157;BME280;52745;49.794;18.258;2023-02-12T04:07:53;-16043.50;;;3.97;100.00
65157;BME280;52745;49.794;18.258;2023-02-12T04:10:37;-16044.47;;;4.01;100.00
65157;BME280;52745;49.794;18.258;2023-02-12T04:13:27;-16045.00;;;4.03;100.00
65157;BME280;52745;49.794;18.258;2023-02-12T04:18:41;-16045.00;;;4.03;100.00
65157;BME280;52745;49.794;18.258;2023-02-12T04:24:02;-16042.97;;;3.95;100.00
65157;BME280;52745;49.794;18.258;2023-02-12T04:26:36;-16044.47;;;4.01;100.00
65157;BME280;52745;49.794;18.258;2023-02-12T04:29:29;-16042.28;;;3.92;100.00
65157;BME280;52745;49.794;18.258;2023-02-12T04:32:06;-16043.09;;;3.96;100.00
65157;BME280;52745;49.794;18.258;2023-02-12T04:39:50;-16040.09;;;3.84;100.00
65157;BME280;52745;49.794;18.258;2023-02-12T04:42:19;-16038.72;;;3.79;100.00
65157;BME280;52745;49.794;18.258;2023-02-12T04:44:46;-16038.72;;;3.79;100.00
65157;BME280;52745;49.794;18.258;2023-02-12T04:47:15;-16038.31;;;3.78;100.00
65157;BME280;52745;49.794;18.258;2023-02-12T04:49:42;-16039.00;;;3.80;100.00
65157;BME280;52745;49.794;18.258;2023-02-12T04:52:09;-16039.81;;;3.83;100.00
65157;BME280;52745;49.794;18.258;2023-02-12T04:54:35;-16039.13;;;3.81;100.00
65157;BME280;52745;49.794;18.258;2023-02-12T04:57:03;-16039.41;;;3.82;100.00
65157;BME280;52745;49.794;18.258;2023-02-12T04:59:29;-16038.03;;;3.77;100.00
65157;BME280;52745;49.794;18.258;2023-02-12T05:01:56;-16037.63;;;3.75;100.00
65157;BME280;52745;49.794;18.258;2023-02-12T05:04:23;-16036.66;;;3.71;100.00
65157;BME280;52745;49.794;18.258;2023-02-12T05:06:50;-16036.66;;;3.71;100.00
65157;BME280;52745;49.794;18.258;2023-02-12T05:09:18;-16036.53;;;3.71;100.00
65157;BME280;52745;49.794;18.258;2023-02-12T05:11:45;-16037.63;;;3.75;100.00
65157;BME280;52745;49.794;18.258;2023-02-12T05:14:12;-16037.88;;;3.76;100.00
65157;BME280;52745;49.794;18.258;2023-02-12T05:16:39;-16036.38;;;3.70;100.00
65157;BME280;52745;49.794;18.258;2023-02-12T05:19:06;-16037.06;;;3.73;100.00
65157;BME280;52745;49.794;18.258;2023-02-12T05:21:36;-16035.97;;;3.69;100.00
65157;BME280;52745;49.794;18.258;2023-02-12T05:24:03;-16036.81;;;3.72;100.00
65157;BME280;52745;49.794;18.258;2023-02-12T05:26:30;-16036.13;;;3.69;100.00
65157;BME280;52745;49.794;18.258;2023-02-12T05:28:56;-16035.03;;;3.65;100.00
65157;BME280;52745;49.794;18.258;2023-02-12T05:31:23;-16035.84;;;3.68;100.00
65157;BME280;52745;49.794;18.258;2023-02-12T05:33:50;-16035.97;;;3.69;100.00
65157;BME280;52745;49.794;18.258;2023-02-12T05:36:20;-16036.53;;;3.71;100.00
65157;BME280;52745;49.794;18.258;2023-02-12T05:38:48;-16035.97;;;3.69;100.00
65157;BME280;52745;49.794;18.258;2023-02-12T05:41:18;-16036.66;;;3.71;100.00
65157;BME280;52745;49.794;18.258;2023-02-12T05:43:45;-16035.97;;;3.69;100.00
65157;BME280;52745;49.794;18.258;2023-02-12T05:46:12;-16035.16;;;3.66;100.00
65157;BME280;52745;49.794;18.258;2023-02-12T05:48:39;-16035.44;;;3.67;100.00
65157;BME280;52745;49.794;18.258;2023-02-12T05:51:23;-16033.50;;;3.60;100.00
65157;BME280;52745;49.794;18.258;2023-02-12T05:53:55;-16035.84;;;3.68;100.00
65157;BME280;52745;49.794;18.258;2023-02-12T05:56:27;-16037.34;;;3.74;100.00
65157;BME280;52745;49.794;18.258;2023-02-12T05:58:56;-16035.97;;;3.69;100.00
65157;BME280;52745;49.794;18.258;2023-02-12T06:01:27;-16034.88;;;3.65;100.00
65157;BME280;52745;49.794;18.258;2023-02-12T06:03:54;-16037.22;;;3.73;100.00
65157;BME280;52745;49.794;18.258;2023-02-12T06:06:24;-16040.09;;;3.84;100.00
65157;BME280;52745;49.794;18.258;2023-02-12T06:08:51;-16042.28;;;3.92;100.00
65157;BME280;52745;49.794;18.258;2023-02-12T06:11:19;-16045.00;;;4.03;100.00
65157;BME280;52745;49.794;18.258;2023-02-12T06:13:46;-16045.97;;;4.06;100.00
65157;BME280;52745;49.794;18.258;2023-02-12T06:16:27;-16048.28;;;4.15;100.00
65157;BME280;52745;49.794;18.258;2023-02-12T06:18:55;-16051.03;;;4.25;100.00
65157;BME280;52745;49.794;18.258;2023-02-12T06:21:24;-16052.25;;;4.30;100.00
65157;BME280;52745;49.794;18.258;2023-02-12T06:23:50;-16054.59;;;4.39;100.00
65157;BME280;52745;49.794;18.258;2023-02-12T06:26:18;-16054.19;;;4.37;100.00
65157;BME280;52745;49.794;18.258;2023-02-12T06:28:45;-16055.69;;;4.43;100.00
65157;BME280;52745;49.794;18.258;2023-02-12T06:31:25;-16054.72;;;4.39;100.00
65157;BME280;52745;49.794;18.258;2023-02-12T06:33:53;-16054.59;;;4.39;100.00
65157;BME280;52745;49.794;18.258;2023-02-12T06:36:21;-16052.81;;;4.32;100.00
65157;BME280;52745;49.794;18.258;2023-02-12T06:38:48;-16053.22;;;4.33;100.00
65157;BME280;52745;49.794;18.258;2023-02-12T06:41:15;-16053.75;;;4.35;100.00
65157;BME280;52745;49.794;18.258;2023-02-12T06:43:42;-16054.84;;;4.40;100.00
65157;BME280;52745;49.794;18.258;2023-02-12T06:46:09;-16051.56;;;4.27;100.00
65157;BME280;52745;49.794;18.258;2023-02-12T06:48:36;-16052.13;;;4.29;100.00
65157;BME280;52745;49.794;18.258;2023-02-12T06:51:15;-16052.53;;;4.31;100.00
65157;BME280;52745;49.794;18.258;2023-02-12T06:53:43;-16052.13;;;4.29;100.00
65157;BME280;52745;49.794;18.258;2023-02-12T06:56:11;-16056.22;;;4.45;100.00
65157;BME280;52745;49.794;18.258;2023-02-12T06:58:40;-16059.22;;;4.56;100.00
65157;BME280;52745;49.794;18.258;2023-02-12T07:01:15;-16060.06;;;4.59;100.00
65157;BME280;52745;49.794;18.258;2023-02-12T07:03:47;-16056.63;;;4.46;100.00
65157;BME280;52745;49.794;18.258;2023-02-12T07:06:15;-16058.69;;;4.54;100.00
65157;BME280;52745;49.794;18.258;2023-02-12T07:08:41;-16059.66;;;4.57;100.00
65157;BME280;52745;49.794;18.258;2023-02-12T07:11:08;-16058.81;;;4.54;100.00
65157;BME280;52745;49.794;18.258;2023-02-12T07:13:35;-16059.50;;;4.57;100.00
65157;BME280;52745;49.794;18.258;2023-02-12T07:16:07;-16059.91;;;4.59;100.00
65157;BME280;52745;49.794;18.258;2023-02-12T07:18:34;-16060.59;;;4.61;100.00
65157;BME280;52745;49.794;18.258;2023-02-12T07:21:04;-16061.28;;;4.64;100.00
65157;BME280;52745;49.794;18.258;2023-02-12T07:23:31;-16062.50;;;4.68;100.00
65157;BME280;52745;49.794;18.258;2023-02-12T07:26:00;-16061.97;;;4.66;100.00
65157;BME280;52745;49.794;18.258;2023-02-12T07:28:27;-16060.06;;;4.59;100.00
65157;BME280;52745;49.794;18.258;2023-02-12T07:30:55;-16063.75;;;4.73;100.00
65157;BME280;52745;49.794;18.258;2023-02-12T07:33:22;-16067.97;;;4.89;100.00
65157;BME280;52745;49.794;18.258;2023-02-12T07:35:50;-16070.19;;;4.97;100.00
65157;BME280;52745;49.794;18.258;2023-02-12T07:38:16;-16066.47;;;4.83;100.00
65157;BME280;52745;49.794;18.258;2023-02-12T07:40:43;-16063.06;;;4.70;100.00
65157;BME280;52745;49.794;18.258;2023-02-12T07:43:10;-16061.84;;;4.66;100.00
65157;BME280;52745;49.794;18.258;2023-02-12T07:45:39;-16064.03;;;4.74;100.00
65157;BME280;52745;49.794;18.258;2023-02-12T07:48:06;-16065.38;;;4.79;100.00
65157;BME280;52745;49.794;18.258;2023-02-12T07:50:33;-16067.72;;;4.88;100.00
65157;BME280;52745;49.794;18.258;2023-02-12T07:52:59;-16065.66;;;4.80;100.00
65157;BME280;52745;49.794;18.258;2023-02-12T07:55:26;-16065.38;;;4.79;100.00
65157;BME280;52745;49.794;18.258;2023-02-12T07:57:53;-16063.63;;;4.72;100.00
65157;BME280;52745;49.794;18.258;2023-02-12T08:00:20;-16065.53;;;4.80;100.00
65157;BME280;52745;49.794;18.258;2023-02-12T08:02:53;-16060.19;;;4.60;100.00
65157;BME280;52745;49.794;18.258;2023-02-12T08:05:20;-16058.41;;;4.53;100.00
65157;BME280;52745;49.794;18.258;2023-02-12T08:07:46;-16057.19;;;4.48;100.00
65157;BME280;52745;49.794;18.258;2023-02-12T08:10:13;-16058.56;;;4.53;100.00
65157;BME280;52745;49.794;18.258;2023-02-12T08:12:40;-16059.78;;;4.58;100.00
65157;BME280;52745;49.794;18.258;2023-02-12T08:15:07;-16062.78;;;4.69;100.00
65157;BME280;52745;49.794;18.258;2023-02-12T08:17:35;-16065.38;;;4.79;100.00
65157;BME280;52745;49.794;18.258;2023-02-12T08:20:02;-16065.38;;;4.79;100.00
65157;BME280;52745;49.794;18.258;2023-02-12T08:22:28;-16064.97;;;4.77;100.00
65157;BME280;52745;49.794;18.258;2023-02-12T08:24:55;-16061.56;;;4.65;100.00
65157;BME280;52745;49.794;18.258;2023-02-12T08:27:22;-16059.66;;;4.57;100.00
65157;BME280;52745;49.794;18.258;2023-02-12T08:29:49;-16058.41;;;4.53;100.00
65157;BME280;52745;49.794;18.258;2023-02-12T08:32:15;-16058.97;;;4.55;100.00
65157;BME280;52745;49.794;18.258;2023-02-12T08:34:42;-16061.16;;;4.63;100.00
65157;BME280;52745;49.794;18.258;2023-02-12T08:37:09;-16061.16;;;4.63;100.00
65157;BME280;52745;49.794;18.258;2023-02-12T08:39:36;-16064.72;;;4.76;100.00
65157;BME280;52745;49.794;18.258;2023-02-12T08:42:02;-16066.63;;;4.84;100.00
65157;BME280;52745;49.794;18.258;2023-02-12T08:44:29;-16067.84;;;4.88;100.00
65157;BME280;52745;49.794;18.258;2023-02-12T08:46:56;-16070.31;;;4.97;100.00
65157;BME280;52745;49.794;18.258;2023-02-12T08:49:26;-16073.19;;;5.08;100.00
65157;BME280;52745;49.794;18.258;2023-02-12T08:51:55;-16077.69;;;5.25;100.00
65157;BME280;52745;49.794;18.258;2023-02-12T08:54:24;-16080.84;;;5.37;99.97
65157;BME280;52745;49.794;18.258;2023-02-12T08:57:01;-16085.50;;;5.54;98.44
65157;BME280;52745;49.794;18.258;2023-02-12T08:59:30;-16102.59;;;6.18;96.03
65157;BME280;52745;49.794;18.258;2023-02-12T09:01:56;-16108.47;;;6.40;93.41
65157;BME280;52745;49.794;18.258;2023-02-12T09:04:25;-16113.09;;;6.58;93.61
65157;BME280;52745;49.794;18.258;2023-02-12T09:06:53;-16143.00;;;7.70;88.52
65157;BME280;52745;49.794;18.258;2023-02-12T09:09:20;-16134.13;;;7.37;88.15
65157;BME280;52745;49.794;18.258;2023-02-12T09:11:47;-16113.09;;;6.58;89.44
65157;BME280;52745;49.794;18.258;2023-02-12T09:14:15;-16101.34;;;6.14;91.60
65157;BME280;52745;49.794;18.258;2023-02-12T09:16:44;-16094.66;;;5.89;92.16
65157;BME280;52745;49.794;18.258;2023-02-12T09:19:12;-16092.88;;;5.82;92.75
65157;BME280;52745;49.794;18.258;2023-02-12T09:21:40;-16088.91;;;5.67;93.21
65157;BME280;52745;49.794;18.258;2023-02-12T09:24:07;-16086.44;;;5.58;93.29
65157;BME280;52745;49.794;18.258;2023-02-12T09:26:34;-16094.25;;;5.87;92.72
65157;BME280;52745;49.794;18.258;2023-02-12T09:29:02;-16099.84;;;6.08;91.58
65157;BME280;52745;49.794;18.258;2023-02-12T09:31:30;-16092.59;;;5.81;91.24
65157;BME280;52745;49.794;18.258;2023-02-12T09:34:00;-16092.88;;;5.82;92.91
65157;BME280;52745;49.794;18.258;2023-02-12T09:36:28;-16090.69;;;5.74;93.30
65157;BME280;52745;49.794;18.258;2023-02-12T09:38:56;-16088.91;;;5.67;93.39
65157;BME280;52745;49.794;18.258;2023-02-12T09:47:19;-16091.91;;;5.78;92.27
65157;BME280;52745;49.794;18.258;2023-02-12T09:50:00;-16090.53;;;5.73;92.33
65157;BME280;52745;49.794;18.258;2023-02-12T09:52:29;-16088.34;;;5.65;93.19
65157;BME280;52745;49.794;18.258;2023-02-12T09:54:57;-16090.00;;;5.71;92.68
65157;BME280;52745;49.794;18.258;2023-02-12T09:57:33;-16086.16;;;5.57;92.80
65157;BME280;52745;49.794;18.258;2023-02-12T10:02:42;-16133.03;;;7.33;87.51
65157;BME280;52745;49.794;18.258;2023-02-12T10:05:23;-16139.59;;;7.57;83.86
65157;BME280;52745;49.794;18.258;2023-02-12T10:08:24;-16139.88;;;7.58;82.75
65157;BME280;52745;49.794;18.258;2023-02-12T10:10:58;-16138.38;;;7.53;82.09
65157;BME280;52745;49.794;18.258;2023-02-12T10:13:54;-16133.88;;;7.36;82.06
65157;BME280;52745;49.794;18.258;2023-02-12T10:27:16;-16106.53;;;6.33;87.61
65157;BME280;52745;49.794;18.258;2023-02-12T10:29:47;-16107.78;;;6.38;87.12
65157;BME280;52745;49.794;18.258;2023-02-12T10:32:27;-16109.97;;;6.46;85.96
65157;BME280;52745;49.794;18.258;2023-02-12T10:34:56;-16120.75;;;6.87;85.25
65157;BME280;52745;49.794;18.258;2023-02-12T10:42:45;-16117.88;;;6.76;83.77
65157;BME280;52745;49.794;18.258;2023-02-12T10:45:30;-16111.06;;;6.50;85.25
65157;BME280;52745;49.794;18.258;2023-02-12T10:53:42;-16115.97;;;6.69;85.00
65157;BME280;52745;49.794;18.258;2023-02-12T10:56:15;-16124.84;;;7.02;82.10
65157;BME280;52745;49.794;18.258;2023-02-12T10:58:58;-16139.06;;;7.55;80.76
65157;BME280;52745;49.794;18.258;2023-02-12T11:03:59;-16142.88;;;7.70;79.83
65157;BME280;52745;49.794;18.258;2023-02-12T11:06:30;-16143.28;;;7.71;78.72
65157;BME280;52745;49.794;18.258;2023-02-12T11:08:58;-16143.56;;;7.72;76.43
65157;BME280;52745;49.794;18.258;2023-02-12T11:11:28;-16144.25;;;7.75;76.90
65157;BME280;52745;49.794;18.258;2023-02-12T11:13:57;-16142.59;;;7.69;78.02
65157;BME280;52745;49.794;18.258;2023-02-12T11:16:29;-16140.16;;;7.59;77.84
65157;BME280;52745;49.794;18.258;2023-02-12T11:19:02;-16130.72;;;7.24;78.85
65157;BME280;52745;49.794;18.258;2023-02-12T11:21:31;-16127.72;;;7.13;80.32
65157;BME280;52745;49.794;18.258;2023-02-12T11:27:24;-16116.50;;;6.71;80.39
65157;BME280;52745;49.794;18.258;2023-02-12T11:30:23;-16111.31;;;6.51;82.39
65157;BME280;52745;49.794;18.258;2023-02-12T11:32:50;-16117.06;;;6.73;83.69
65157;BME280;52745;49.794;18.258;2023-02-12T11:35:22;-16118.69;;;6.79;81.67
65157;BME280;52745;49.794;18.258;2023-02-12T11:37:57;-16118.84;;;6.79;82.55
65157;BME280;52745;49.794;18.258;2023-02-12T11:40:35;-16126.22;;;7.07;81.27
65157;BME280;52745;49.794;18.258;2023-02-12T11:43:06;-16128.41;;;7.15;79.95
65157;BME280;52745;49.794;18.258;2023-02-12T11:45:36;-16119.66;;;6.82;80.34
65157;BME280;52745;49.794;18.258;2023-02-12T11:48:16;-16124.84;;;7.02;80.44
65157;BME280;52745;49.794;18.258;2023-02-12T11:50:51;-16126.50;;;7.08;78.74
65157;BME280;52745;49.794;18.258;2023-02-12T11:53:29;-16126.75;;;7.09;77.67
65157;BME280;52745;49.794;18.258;2023-02-12T11:56:06;-16125.53;;;7.04;77.35
65157;BME280;52745;49.794;18.258;2023-02-12T11:58:33;-16125.81;;;7.05;78.44
65157;BME280;52745;49.794;18.258;2023-02-12T12:09:26;-16124.84;;;7.02;78.12
65157;BME280;52745;49.794;18.258;2023-02-12T12:12:08;-16121.84;;;6.91;78.78
65157;BME280;52745;49.794;18.258;2023-02-12T12:20:32;-16103.53;;;6.22;79.25
65157;BME280;52745;49.794;18.258;2023-02-12T12:23:08;-16103.69;;;6.22;80.43
65157;BME280;52745;49.794;18.258;2023-02-12T12:25:46;-16105.19;;;6.28;81.04
65157;BME280;52745;49.794;18.258;2023-02-12T12:28:35;-16106.53;;;6.33;79.88
65157;BME280;52745;49.794;18.258;2023-02-12T12:33:48;-16110.91;;;6.50;80.09
65157;BME280;52745;49.794;18.258;2023-02-12T12:45:09;-16112.41;;;6.55;80.75
65157;BME280;52745;49.794;18.258;2023-02-12T13:14:53;-16098.75;;;6.04;82.95
65157;BME280;52745;49.794;18.258;2023-02-12T13:20:44;-16097.53;;;5.99;83.27
65157;BME280;52745;49.794;18.258;2023-02-12T13:23:18;-16095.59;;;5.92;83.33
65157;BME280;52745;49.794;18.258;2023-02-12T13:28:48;-16099.97;;;6.09;83.20
65157;BME280;52745;49.794;18.258;2023-02-12T13:31:23;-16096.44;;;5.95;83.58
65157;BME280;52745;49.794;18.258;2023-02-12T13:33:57;-16094.66;;;5.89;84.04
65157;BME280;52745;49.794;18.258;2023-02-12T13:36:25;-16093.81;;;5.86;84.16
65157;BME280;52745;49.794;18.258;2023-02-12T13:41:29;-16095.34;;;5.91;84.64
65157;BME280;52745;49.794;18.258;2023-02-12T13:49:42;-16111.72;;;6.53;82.69
65157;BME280;52745;49.794;18.258;2023-02-12T13:57:22;-16121.97;;;6.91;80.73
65157;BME280;52745;49.794;18.258;2023-02-12T14:05:02;-16135.22;;;7.41;79.15
65157;BME280;52745;49.794;18.258;2023-02-12T14:07:43;-16146.28;;;7.82;77.96
65157;BME280;52745;49.794;18.258;2023-02-12T14:10:34;-16136.31;;;7.45;77.96
65157;BME280;52745;49.794;18.258;2023-02-12T14:13:14;-16127.19;;;7.11;78.04
65157;BME280;52745;49.794;18.258;2023-02-12T14:15:47;-16126.22;;;7.07;78.88
65157;BME280;52745;49.794;18.258;2023-02-12T14:18:35;-16117.75;;;6.75;78.92
65157;BME280;52745;49.794;18.258;2023-02-12T14:23:40;-16113.38;;;6.59;80.13
65157;BME280;52745;49.794;18.258;2023-02-12T14:26:35;-16111.72;;;6.53;80.05
65157;BME280;52745;49.794;18.258;2023-02-12T14:29:05;-16111.19;;;6.51;80.16
65157;BME280;52745;49.794;18.258;2023-02-12T14:31:41;-16111.47;;;6.52;81.05
65157;BME280;52745;49.794;18.258;2023-02-12T14:36:37;-16109.81;;;6.46;81.26
65157;BME280;52745;49.794;18.258;2023-02-12T14:47:11;-16115.84;;;6.68;79.60
65157;BME280;52745;49.794;18.258;2023-02-12T14:49:45;-16112.41;;;6.55;80.03
65157;BME280;52745;49.794;18.258;2023-02-12T14:52:18;-16112.81;;;6.57;80.29
65157;BME280;52745;49.794;18.258;2023-02-12T14:54:56;-16111.59;;;6.52;79.98
65157;BME280;52745;49.794;18.258;2023-02-12T15:05:28;-16103.00;;;6.20;82.00
65157;BME280;52745;49.794;18.258;2023-02-12T15:08:14;-16105.44;;;6.29;81.59
65157;BME280;52745;49.794;18.258;2023-02-12T15:16:34;-16107.91;;;6.38;80.50
65157;BME280;52745;49.794;18.258;2023-02-12T15:19:23;-16108.19;;;6.39;80.70
65157;BME280;52745;49.794;18.258;2023-02-12T15:21:53;-16104.34;;;6.25;80.54
65157;BME280;52745;49.794;18.258;2023-02-12T15:24:25;-16100.53;;;6.11;81.35
65157;BME280;52745;49.794;18.258;2023-02-12T15:26:57;-16095.06;;;5.90;82.36
65157;BME280;52745;49.794;18.258;2023-02-12T15:29:35;-16095.06;;;5.90;82.44
65157;BME280;52745;49.794;18.258;2023-02-12T15:32:13;-16093.16;;;5.83;83.07
65157;BME280;52745;49.794;18.258;2023-02-12T15:34:41;-16096.16;;;5.94;82.40
65157;BME280;52745;49.794;18.258;2023-02-12T15:37:08;-16097.53;;;5.99;82.19
65157;BME280;52745;49.794;18.258;2023-02-12T15:39:45;-16093.81;;;5.86;82.59
65157;BME280;52745;49.794;18.258;2023-02-12T15:47:41;-16092.88;;;5.82;82.91
65157;BME280;52745;49.794;18.258;2023-02-12T15:50:16;-16093.00;;;5.83;83.01
65157;BME280;52745;49.794;18.258;2023-02-12T15:52:44;-16093.97;;;5.86;82.41
65157;BME280;52745;49.794;18.258;2023-02-12T15:55:19;-16096.28;;;5.95;82.45
65157;BME280;52745;49.794;18.258;2023-02-12T15:57:54;-16095.34;;;5.91;82.62
65157;BME280;52745;49.794;18.258;2023-02-12T16:00:34;-16096.00;;;5.94;82.29
65157;BME280;52745;49.794;18.258;2023-02-12T16:03:02;-16096.84;;;5.97;82.14
65157;BME280;52745;49.794;18.258;2023-02-12T16:05:30;-16094.78;;;5.89;82.13
65157;BME280;52745;49.794;18.258;2023-02-12T16:07:58;-16093.41;;;5.84;82.54